الصفحة الرئيسية
METAR-TAF:

METAR-TAF

مطار :

مطار تيد ستيفنز أنكوراج الدولي

أنكوراج, ألاسكا, الولايات المتحدة

دائرة عرض: 61-10-28N, خط طول: 149-59-46W, ارتفاع: 44 متر

مراقبة الطقس الحالي

تاريخ ووقت الإصدار 34 دقيقة قبل الساعة 18:53UTC
ريح 5 عقدة من الغرب/الشمال الغربي
درجة الحرارة 18°درجة مئوية
الرطوبة 52%
ضغط 1007 hPa
الرؤية: 16.1 كم
سماء صافية

METAR: PANC 221853Z 29005KT 10SM CLR 18/08 A2974 RMK AO2 SLP072 T01780083

زمن: 11:27 (19:27 UTC)

توقعات

تاريخ ووقت الإصدار 2ساعات و 4 دقيقة قبل الساعة 17:23UTC
التوقعات صالحة من22 الساعة 18 UTC إلى 23 الساعة 24 UTC
ريح 3 عقدةمن اتجاهات متغيرة
الرؤية: 10 كم
غيوم متفرقة على ارتفاع 10000 قدم
من 22 الساعة 2100 UTC
ريح 7 عقدة من الغرب/الجنوب الغربي
الرؤية: 10 كم
غيوم قليلة على ارتفاع 6000 قدم
غيوم متفرقة على ارتفاع 10000 قدم
من 23 الساعة 0900 UTC
ريح 6 عقدة من الجنوب
الرؤية: 10 كم
غيوم مفككة على ارتفاع 10000 قدم
من 23 الساعة 1600 UTC
ريح 5 عقدة من الغرب
الرؤية: 10 كم
غيوم مفككة على ارتفاع 10000 قدم

TAF: PANC 221723Z 2218/2324 VRB03KT P6SM SCT100 FM222100 24007KT P6SM FEW060 SCT100 FM230900 18006KT P6SM BKN100 FM231600 28005KT P6SM BKN100

أرصاد الطقس والتوقعات من أكثر من 4000 مطار (تقارير الطقس للمطار METAR والتنبؤ بالطقس بالمطارTAF).

المحطات المتاحة هي النقط الصفراء والحمراء على الخريطة.

حرك المؤشر فوق النقطة لمعرفة اسم المحطة.

ثم انقر لمعرفة أرصاد وتوقعات الطقس.

لتغيير الخارطة: اضغط على الأزرار الخضراء مع رمز الصليب الأسود للتكبير. على الزر الأخضر مع شرطة للتصغير، أو على الأسهم الخضراء للخرائط المجاورة.


METAR-TAF: